Time;durP1;ratioP1;P1;durP2;ratioP2;P2;SDS_P1;SDS_P2;PMS_P1;PMS_P2;Temp;Humidity;BMP_temperature;BMP_pressure;BME280_temperature;BME280_humidity;BME280_pressure;Samples;Min_cycle;Max_cycle;Signal;HPM_P1;HPM_P2
2022/08/14 00:01:31;;;;;;;6.85;6.00;;;;;;;23.72;44.03;99533.25;5008756;28;20041;-86
2022/08/14 00:03:58;;;;;;;10.40;7.35;;;;;;;23.70;44.38;99529.91;5023129;28;20045;-86
2022/08/14 00:06:26;;;;;;;8.73;6.25;;;;;;;23.73;44.00;99522.19;5014360;28;20045;-86
2022/08/14 00:08:55;;;;;;;10.85;6.85;;;;;;;23.70;44.17;99525.31;5031297;28;20128;-86
2022/08/14 00:11:26;;;;;;;8.80;6.65;;;;;;;23.69;44.73;99522.84;5027654;28;20077;-86
2022/08/14 00:13:59;;;;;;;10.85;6.68;;;;;;;23.62;44.95;99522.94;5044316;28;20061;-86
2022/08/14 00:16:27;;;;;;;8.23;7.18;;;;;;;23.55;45.13;99520.28;5006033;28;20625;-86
2022/08/14 00:19:11;;;;;;;7.43;6.40;;;;;;;23.52;45.22;99515.34;5003076;28;20498;-82
2022/08/14 00:21:47;;;;;;;9.02;6.68;;;;;;;23.50;45.41;99509.31;4998204;28;20045;-85
2022/08/14 00:24:21;;;;;;;8.18;7.38;;;;;;;23.46;45.59;99510.84;5009124;28;20046;-85
2022/08/14 00:26:55;;;;;;;7.68;6.40;;;;;;;23.55;45.11;99495.91;5008601;28;20049;-85
2022/08/14 00:29:21;;;;;;;9.00;7.15;;;;;;;23.55;45.43;99492.38;5029425;28;20112;-85
2022/08/14 00:31:51;;;;;;;8.15;6.88;;;;;;;23.65;45.54;99489.94;5028680;28;20053;-85
2022/08/14 00:34:22;;;;;;;9.18;6.93;;;;;;;23.64;46.19;99498.31;5027886;28;20556;-85
2022/08/14 00:37:10;;;;;;;7.68;6.93;;;;;;;23.62;46.35;99487.69;5003789;28;20037;-85
2022/08/14 00:39:38;;;;;;;7.70;6.90;;;;;;;23.64;46.39;99485.59;5016737;28;20549;-85
2022/08/14 00:42:06;;;;;;;8.80;6.95;;;;;;;23.68;46.50;99480.53;5040767;28;20099;-85
2022/08/14 00:44:47;;;;;;;7.88;7.07;;;;;;;23.65;46.79;99479.09;4987444;28;20057;-86
2022/08/14 00:47:15;;;;;;;8.13;6.82;;;;;;;23.70;46.69;99465.69;5026197;28;20068;-83
2022/08/14 00:49:42;;;;;;;7.95;6.93;;;;;;;23.79;46.67;99471.66;5011792;28;20096;-83
2022/08/14 00:52:12;;;;;;;8.30;7.43;;;;;;;23.72;47.49;99466.31;5001089;28;20044;-83
2022/08/14 00:54:43;;;;;;;;;;;;;;;23.32;49.28;99469.53;5033412;28;20531;-83
2022/08/14 00:57:11;;;;;;;12.85;7.43;;;;;;;23.83;46.95;99456.56;5042172;28;20381;-83
2022/08/14 00:59:38;;;;;;;10.32;7.65;;;;;;;23.86;47.19;99461.50;5028380;28;20049;-82
2022/08/14 01:02:06;;;;;;;8.15;7.38;;;;;;;23.87;47.27;99462.38;5021049;28;20129;-83
2022/08/14 01:04:35;;;;;;;8.50;7.57;;;;;;;23.86;47.55;99466.13;5039653;28;20042;-82
2022/08/14 01:07:20;;;;;;;9.00;7.35;;;;;;;23.78;47.93;99461.84;5045478;28;20045;-82
2022/08/14 01:09:52;;;;;;;9.15;7.70;;;;;;;23.76;47.88;99453.97;5013231;28;20508;-83
2022/08/14 01:12:20;;;;;;;8.02;7.20;;;;;;;23.69;48.17;99453.19;5039946;28;20041;-82
2022/08/14 01:14:56;;;;;;;9.23;8.15;;;;;;;23.73;48.15;99451.69;5038911;28;20120;-83
2022/08/14 01:21:02;;;;;;;9.60;8.10;;;;;;;23.79;47.85;99449.97;5007256;28;20050;-83
2022/08/14 01:23:10;;;;;;;8.45;7.32;;;;;;;23.63;48.90;99462.22;5032377;28;20435;-82
2022/08/14 01:25:49;;;;;;;10.73;8.15;;;;;;;23.73;48.37;99461.72;4995548;28;20052;-82
2022/08/14 01:28:17;;;;;;;;;;;;;;;23.28;50.38;99464.78;5021619;28;20069;-82
2022/08/14 01:31:08;;;;;;;9.27;7.78;;;;;;;23.70;48.84;99456.72;5001090;28;20038;-82
2022/08/14 01:33:43;;;;;;;9.00;8.10;;;;;;;23.78;48.24;99459.13;5031425;28;20049;-83
2022/08/14 01:36:27;;;;;;;7.57;6.85;;;;;;;23.88;47.92;99450.44;5005707;28;20058;-83
2022/08/14 01:38:56;;;;;;;8.65;7.78;;;;;;;23.83;48.31;99453.84;5011697;28;20070;-82
2022/08/14 01:41:25;;;;;;;8.82;7.95;;;;;;;23.87;48.48;99441.50;5010301;28;20115;-82
2022/08/14 01:44:00;;;;;;;8.23;7.43;;;;;;;23.83;48.70;99445.72;5036217;28;20046;-86
2022/08/14 01:46:33;;;;;;;9.15;8.32;;;;;;;23.86;48.35;99439.00;5034156;28;20037;-86
2022/08/14 01:49:05;;;;;;;8.88;7.97;;;;;;;23.85;48.46;99431.94;5047465;28;20045;-87
2022/08/14 01:51:33;;;;;;;8.68;7.78;;;;;;;23.78;48.65;99421.19;5034437;28;20049;-87
2022/08/14 01:54:13;;;;;;;8.65;7.40;;;;;;;23.53;49.67;99424.84;5037036;28;20405;-87
2022/08/14 01:56:43;;;;;;;9.60;8.60;;;;;;;23.64;49.15;99425.13;5028428;28;20100;-83
2022/08/14 01:59:20;;;;;;;8.65;7.68;;;;;;;23.62;49.45;99426.19;5016327;28;20041;-84
2022/08/14 02:01:51;;;;;;;9.80;8.75;;;;;;;23.71;49.02;99420.41;5008238;28;20498;-83
2022/08/14 02:04:31;;;;;;;10.85;8.25;;;;;;;23.69;49.55;99407.13;5000787;28;20585;-83
2022/08/14 02:07:19;;;;;;;10.77;7.95;;;;;;;23.69;48.85;99396.28;5012879;28;20057;-85
2022/08/14 02:10:10;;;;;;;9.38;7.85;;;;;;;23.66;49.39;99396.75;4928976;28;20042;-85
2022/08/14 02:12:42;;;;;;;9.57;7.97;;;;;;;23.61;49.41;99386.59;4987741;28;20046;-85
2022/08/14 02:15:10;;;;;;;11.77;7.85;;;;;;;23.50;49.98;99379.22;4962243;28;20067;-82
2022/08/14 02:17:37;;;;;;;9.00;8.10;;;;;;;23.49;49.83;99376.78;4969881;28;20379;-84
2022/08/14 02:20:07;;;;;;;8.73;7.88;;;;;;;23.51;49.78;99386.31;4957705;28;20038;-83
2022/08/14 02:22:34;;;;;;;10.43;8.57;;;;;;;23.45;50.06;99372.88;4961273;28;20131;-85
2022/08/14 02:25:13;;;;;;;9.45;8.10;;;;;;;23.34;50.19;99386.13;4992661;28;20798;-84
2022/08/14 02:27:44;;;;;;;9.35;8.43;;;;;;;23.34;50.29;99390.75;4992664;28;20076;-83
2022/08/14 02:30:32;;;;;;;9.80;8.57;;;;;;;23.39;50.42;99383.56;4938945;28;20057;-83
2022/08/14 02:33:00;;;;;;;9.95;8.93;;;;;;;23.49;50.11;99383.00;4965297;28;20954;-83
2022/08/14 02:35:27;;;;;;;11.07;9.38;;;;;;;23.47;50.32;99387.84;4970725;28;20480;-83
2022/08/14 02:37:58;;;;;;;10.02;8.95;;;;;;;23.50;50.32;99392.78;5037449;28;20045;-83
2022/08/14 02:40:30;;;;;;;10.85;8.70;;;;;;;23.45;50.66;99386.41;5021157;28;20042;-83
2022/08/14 02:43:00;;;;;;;9.52;8.60;;;;;;;23.37;50.73;99380.25;5011775;28;20065;-84
2022/08/14 02:45:33;;;;;;;10.80;8.52;;;;;;;23.36;50.93;99378.63;5030175;28;20046;-84
2022/08/14 02:48:11;;;;;;;9.88;8.52;;;;;;;23.23;51.38;99380.66;5009750;28;20512;-84
2022/08/14 02:50:59;;;;;;;12.80;8.68;;;;;;;23.09;51.71;99377.31;5021651;28;20053;-84
2022/08/14 02:53:28;;;;;;;10.88;8.93;;;;;;;23.11;51.47;99376.03;5034001;28;20920;-84
2022/08/14 02:55:58;;;;;;;10.70;9.60;;;;;;;23.26;51.17;99363.97;5010857;28;20046;-85
2022/08/14 02:58:32;;;;;;;10.25;9.25;;;;;;;23.17;51.46;99368.88;5027645;28;20068;-85
2022/08/14 03:00:59;;;;;;;11.77;9.65;;;;;;;23.12;51.67;99364.13;4987965;28;20041;-85
2022/08/14 03:03:27;;;;;;;14.57;10.25;;;;;;;23.16;51.54;99357.22;5028152;28;20049;-85
2022/08/14 03:06:15;;;;;;;10.50;9.25;;;;;;;23.22;51.26;99360.88;4970765;28;20050;-84
2022/08/14 03:09:00;;;;;;;10.32;9.32;;;;;;;23.18;51.53;99357.81;4969782;28;20125;-83
2022/08/14 03:11:27;;;;;;;13.20;11.00;;;;;;;23.20;51.61;99354.88;4966036;28;20773;-83
2022/08/14 03:14:00;;;;;;;11.02;9.20;;;;;;;23.20;51.44;99357.56;4969957;28;20414;-83
2022/08/14 03:16:34;;;;;;;12.27;10.27;;;;;;;23.19;51.53;99356.75;4965508;28;20740;-84
2022/08/14 03:19:09;;;;;;;11.35;9.57;;;;;;;22.92;52.64;99358.13;4982834;28;20046;-84
2022/08/14 03:21:38;;;;;;;12.52;9.60;;;;;;;23.04;51.68;99356.34;4976738;28;20046;-86
2022/08/14 03:26:48;;;;;;;10.23;9.02;;;;;;;22.99;51.99;99347.25;5017594;28;20061;-82
2022/08/14 03:29:21;;;;;;;13.73;10.45;;;;;;;23.01;52.07;99345.97;5036400;28;20497;-82
2022/08/14 03:31:51;;;;;;;12.27;9.82;;;;;;;22.95;52.07;99350.41;5027510;28;20100;-86
2022/08/14 03:34:22;;;;;;;12.07;10.88;;;;;;;22.97;52.08;99339.34;5001542;28;20546;-81
2022/08/14 03:37:11;;;;;;;12.35;10.90;;;;;;;22.93;52.26;99346.25;5029658;28;20046;-82
2022/08/14 03:39:58;;;;;;;10.80;9.70;;;;;;;22.79;53.24;99342.88;5024256;28;20050;-82
2022/08/14 03:42:26;;;;;;;15.65;10.18;;;;;;;22.71;53.67;99335.91;5004983;28;20076;-84
2022/08/14 03:45:05;;;;;;;11.25;10.05;;;;;;;22.69;53.47;99339.88;5014338;28;20053;-85
2022/08/14 03:47:51;;;;;;;12.70;10.57;;;;;;;22.71;53.34;99335.06;5017635;28;21774;-83
2022/08/14 03:50:25;;;;;;;11.45;9.95;;;;;;;22.65;53.27;99342.22;5023867;28;20045;-83
2022/08/14 03:52:53;;;;;;;11.02;10.00;;;;;;;22.60;53.35;99335.84;5031484;28;20063;-84
2022/08/14 03:55:27;;;;;;;;;;;;;;;22.03;55.29;99341.38;5005965;28;20061;-85
2022/08/14 03:57:56;;;;;;;11.90;10.68;;;;;;;22.52;53.60;99343.22;5023364;28;19929;-84
2022/08/14 04:00:22;;;;;;;11.27;9.85;;;;;;;22.45;53.70;99345.16;5030042;28;20033;-85
2022/08/14 04:03:09;;;;;;;13.40;11.32;;;;;;;22.41;54.24;99335.81;4977507;28;20448;-85
2022/08/14 04:05:41;;;;;;;12.00;10.75;;;;;;;22.42;54.00;99331.28;5012603;28;20049;-83
2022/08/14 04:08:14;;;;;;;13.95;11.13;;;;;;;22.43;53.87;99330.19;5044992;28;20044;-83
2022/08/14 04:10:58;;;;;;;13.27;11.05;;;;;;;22.30;54.57;99333.88;5022454;28;20049;-83
2022/08/14 04:13:28;;;;;;;12.40;11.07;;;;;;;22.30;54.28;99323.88;4999788;28;20049;-84
2022/08/14 04:16:04;;;;;;;13.13;11.13;;;;;;;22.30;54.39;99325.78;5013981;28;20448;-85
2022/08/14 04:18:45;;;;;;;12.35;10.23;;;;;;;22.12;54.93;99318.44;5024365;28;20057;-84
2022/08/14 04:21:12;;;;;;;12.20;10.73;;;;;;;22.29;54.22;99324.94;5011348;28;20057;-84
2022/08/14 04:23:42;;;;;;;11.95;10.75;;;;;;;22.31;54.41;99322.00;5028922;28;20045;-85
2022/08/14 04:26:11;;;;;;;14.25;11.93;;;;;;;22.30;54.39;99328.47;5009727;28;20092;-85
2022/08/14 04:28:53;;;;;;;;;;;;;;;21.59;56.92;99330.53;5030121;28;20104;-85
2022/08/14 04:31:39;;;;;;;11.98;10.68;;;;;;;22.06;54.98;99325.56;5049928;28;19967;-83
2022/08/14 04:34:26;;;;;;;14.02;10.77;;;;;;;22.05;54.93;99326.59;5038547;28;20382;-83
2022/08/14 04:45:23;;;;;;;15.88;10.45;;;;;;;21.96;55.70;99325.25;5021743;28;20041;-84
2022/08/14 04:50:50;;;;;;;14.00;11.38;;;;;;;22.05;55.95;99325.78;5034956;28;20054;-87
2022/08/14 04:53:22;;;;;;;16.52;11.70;;;;;;;22.34;54.77;99318.88;4995793;28;20060;-87
2022/08/14 04:55:52;;;;;;;13.23;10.80;;;;;;;22.17;55.88;99318.59;5019725;28;20056;-86
2022/08/14 04:58:23;;;;;;;14.70;11.75;;;;;;;22.32;55.00;99321.78;4997836;28;20044;-87
2022/08/14 05:01:00;;;;;;;14.80;12.43;;;;;;;22.40;54.89;99323.38;5027934;28;20099;-87
2022/08/14 05:03:29;;;;;;;14.15;11.35;;;;;;;22.42;55.27;99320.44;5038482;28;20049;-84
2022/08/14 05:05:59;;;;;;;15.38;10.90;;;;;;;22.49;55.25;99322.03;5021745;28;20044;-86
2022/08/14 05:08:26;;;;;;;15.68;12.90;;;;;;;22.53;54.59;99312.38;5012388;28;20052;-86
2022/08/14 05:11:14;;;;;;;13.38;11.77;;;;;;;22.57;54.46;99318.19;5021622;28;20116;-86
2022/08/14 05:13:42;;;;;;;14.68;13.07;;;;;;;22.56;54.36;99311.09;5008880;28;20045;-82
2022/08/14 05:16:30;;;;;;;15.07;12.93;;;;;;;22.54;54.40;99310.50;5043477;28;20145;-82
2022/08/14 05:18:57;;;;;;;14.40;12.90;;;;;;;22.59;54.25;99315.22;5019757;28;20125;-81
2022/08/14 05:21:43;;;;;;;14.90;13.20;;;;;;;22.57;54.34;99314.63;4985459;28;20046;-83
2022/08/14 05:24:24;;;;;;;14.65;13.10;;;;;;;22.66;54.09;99305.16;5021605;28;20049;-83
2022/08/14 05:26:51;;;;;;;16.95;13.77;;;;;;;22.68;54.15;99312.00;5026720;28;20042;-83
2022/08/14 05:29:19;;;;;;;18.88;13.05;;;;;;;22.61;54.35;99318.53;5023083;28;20374;-83
2022/08/14 05:31:46;;;;;;;16.00;13.75;;;;;;;22.65;54.11;99317.88;5026325;28;20386;-83
2022/08/14 05:34:13;;;;;;;15.05;13.35;;;;;;;22.71;53.79;99308.00;5022834;28;20397;-83
2022/08/14 05:36:41;;;;;;;15.90;13.73;;;;;;;22.71;54.29;99310.72;5010940;28;20056;-83
2022/08/14 05:39:16;;;;;;;16.52;13.95;;;;;;;22.73;54.19;99311.31;5044643;28;20053;-85
2022/08/14 05:41:43;;;;;;;17.98;14.20;;;;;;;22.81;53.97;99315.59;4998256;28;20049;-86
2022/08/14 05:44:19;;;;;;;15.55;13.23;;;;;;;22.88;53.93;99310.94;5036729;28;20124;-86
2022/08/14 05:46:46;;;;;;;16.02;13.80;;;;;;;22.85;54.07;99306.78;5008689;28;20743;-86
2022/08/14 05:49:13;;;;;;;19.15;14.18;;;;;;;22.94;53.95;99310.81;5021729;28;20046;-82
2022/08/14 05:51:40;;;;;;;17.92;14.98;;;;;;;22.95;53.65;99315.19;5012685;28;20050;-82
2022/08/14 05:54:07;;;;;;;15.77;14.07;;;;;;;22.93;53.80;99321.91;5011990;28;20053;-84
2022/08/14 05:56:39;;;;;;;17.35;14.68;;;;;;;22.99;53.79;99314.75;5020885;28;20512;-84
2022/08/14 05:59:06;;;;;;;15.57;13.90;;;;;;;23.06;53.33;99310.09;5047169;28;20493;-84
2022/08/14 06:01:33;;;;;;;16.95;14.77;;;;;;;22.85;53.99;99314.09;5025548;28;20072;-85
2022/08/14 06:04:01;;;;;;;17.90;14.73;;;;;;;22.86;53.59;99308.44;5032422;28;20107;-85
2022/08/14 06:06:30;;;;;;;17.05;14.20;;;;;;;22.93;53.72;99311.88;5019553;28;20053;-84
2022/08/14 06:09:03;;;;;;;18.38;13.88;;;;;;;22.92;53.88;99320.22;5010728;28;20064;-85
2022/08/14 06:11:30;;;;;;;17.45;14.88;;;;;;;22.94;53.98;99315.41;5012757;28;20111;-85
2022/08/14 06:13:58;;;;;;;16.90;14.63;;;;;;;22.90;54.09;99314.25;5013371;28;20052;-85
2022/08/14 06:16:25;;;;;;;20.63;14.23;;;;;;;23.01;54.00;99312.66;5045689;28;20041;-85
2022/08/14 06:18:52;;;;;;;20.17;14.52;;;;;;;23.15;53.33;99312.25;5027571;28;20046;-85
2022/08/14 06:21:21;;;;;;;16.90;14.27;;;;;;;23.06;53.60;99310.09;5014498;28;20049;-85
2022/08/14 06:23:48;;;;;;;18.65;14.77;;;;;;;23.09;53.66;99309.63;5014981;28;20077;-86
2022/08/14 06:26:15;;;;;;;15.27;13.43;;;;;;;23.16;53.70;99305.75;4997673;28;20167;-85
2022/08/14 06:28:46;;;;;;;15.73;13.85;;;;;;;23.19;53.64;99302.59;5040794;28;20141;-85
2022/08/14 06:31:19;;;;;;;15.88;13.82;;;;;;;23.16;53.19;99308.47;5035374;28;20052;-85
2022/08/14 06:33:46;;;;;;;17.63;14.70;;;;;;;23.05;53.87;99300.28;5007618;28;20046;-85
2022/08/14 06:36:33;;;;;;;18.85;13.95;;;;;;;23.07;53.80;99293.59;4984450;28;20038;-83
2022/08/14 06:39:01;;;;;;;16.58;13.40;;;;;;;23.07;53.59;99285.47;5002073;28;20049;-83
2022/08/14 06:41:27;;;;;;;18.75;14.52;;;;;;;23.15;53.64;99285.16;5012592;28;20045;-83
2022/08/14 06:44:14;;;;;;;18.13;14.60;;;;;;;23.25;53.38;99276.44;5043015;28;20057;-86
2022/08/14 06:46:41;;;;;;;17.45;13.05;;;;;;;23.34;53.11;99274.25;5020232;28;20049;-86
2022/08/14 06:49:15;;;;;;;15.68;13.45;;;;;;;23.36;52.92;99274.84;5034647;28;20479;-85
2022/08/14 06:51:45;;;;;;;16.08;13.38;;;;;;;23.40;52.74;99268.69;5011729;28;20071;-86
2022/08/14 06:54:17;;;;;;;17.92;14.65;;;;;;;23.42;53.01;99262.25;5000528;28;20045;-84
2022/08/14 06:56:44;;;;;;;18.02;14.07;;;;;;;23.45;52.51;99257.16;5009875;28;20045;-86
2022/08/14 06:59:20;;;;;;;15.82;12.70;;;;;;;23.48;52.42;99256.69;5019276;28;20046;-86
2022/08/14 07:07:38;;;;;;;18.08;13.63;;;;;;;23.73;52.31;99231.28;5024334;28;20387;-86
2022/08/14 07:10:07;;;;;;;15.45;12.65;;;;;;;23.81;51.61;99229.06;5050032;28;20615;-85
2022/08/14 07:12:42;;;;;;;16.85;13.30;;;;;;;23.85;51.58;99234.81;5049105;28;20041;-85
2022/08/14 07:15:28;;;;;;;15.70;12.98;;;;;;;23.82;51.27;99236.13;5036723;28;20123;-87
2022/08/14 07:17:54;;;;;;;15.25;12.70;;;;;;;23.86;50.98;99227.50;5031459;28;20033;-82
2022/08/14 07:20:22;;;;;;;14.60;12.70;;;;;;;23.92;50.87;99237.41;5031337;28;20503;-83
2022/08/14 07:23:05;;;;;;;14.02;12.10;;;;;;;23.96;50.50;99225.84;5034662;28;20045;-83
2022/08/14 07:26:04;;;;;;;13.80;12.07;;;;;;;23.93;50.86;99229.03;5012647;28;20075;-83
2022/08/14 07:28:36;;;;;;;13.65;11.43;;;;;;;24.01;50.18;99231.38;5011333;28;20050;-83
2022/08/14 07:31:10;;;;;;;12.73;11.43;;;;;;;24.07;50.00;99228.75;5026251;28;20050;-83
2022/08/14 07:33:40;;;;;;;12.80;10.88;;;;;;;24.11;48.93;99235.38;5015470;28;20054;-86
2022/08/14 07:36:11;;;;;;;13.27;10.95;;;;;;;24.13;49.31;99235.97;5017036;28;20466;-86
2022/08/14 07:38:57;;;;;;;16.40;10.77;;;;;;;24.18;48.94;99230.66;5017071;28;20053;-86
2022/08/14 07:41:24;;;;;;;13.27;10.85;;;;;;;24.22;48.60;99234.50;5030009;28;20374;-81
2022/08/14 07:44:00;;;;;;;14.80;11.45;;;;;;;24.27;48.58;99235.47;5022071;28;20052;-81
2022/08/14 07:46:46;;;;;;;12.32;10.82;;;;;;;24.32;48.84;99236.63;5007280;28;20049;-81
2022/08/14 07:49:13;;;;;;;14.80;11.02;;;;;;;24.25;48.24;99231.34;4974175;28;20046;-81
2022/08/14 07:51:45;;;;;;;14.70;10.73;;;;;;;24.36;48.22;99235.91;5026288;28;20045;-81
2022/08/14 07:54:18;;;;;;;15.13;11.35;;;;;;;24.43;48.25;99239.31;5042816;28;20045;-80
2022/08/14 07:56:59;;;;;;;15.50;11.30;;;;;;;24.45;47.98;99236.38;5037770;28;20124;-86
2022/08/14 07:59:37;;;;;;;15.40;10.48;;;;;;;24.54;48.28;99231.41;5016965;28;20045;-87
2022/08/14 08:02:10;;;;;;;11.68;10.48;;;;;;;24.57;47.99;99225.47;5030063;28;20501;-82
2022/08/14 08:04:48;;;;;;;13.15;10.93;;;;;;;24.60;47.41;99222.28;5032415;28;20486;-82
2022/08/14 08:07:15;;;;;;;11.80;10.52;;;;;;;24.65;47.52;99219.66;5028109;28;20111;-82
2022/08/14 08:09:49;;;;;;;12.77;10.07;;;;;;;24.65;47.14;99217.78;5023664;28;20056;-82
2022/08/14 08:12:19;;;;;;;13.50;10.20;;;;;;;24.75;47.04;99217.13;5026778;28;20049;-82
2022/08/14 08:14:50;;;;;;;12.48;10.07;;;;;;;24.78;47.08;99215.81;5023439;28;20041;-82
2022/08/14 08:17:22;;;;;;;11.50;10.40;;;;;;;24.81;46.76;99218.06;5012735;28;20057;-82
2022/08/14 08:19:52;;;;;;;13.20;9.77;;;;;;;24.81;46.44;99228.94;5025489;28;20049;-82
2022/08/14 08:22:20;;;;;;;11.52;10.27;;;;;;;24.86;46.61;99226.31;5043622;28;20056;-82
2022/08/14 08:24:47;;;;;;;13.18;9.93;;;;;;;24.91;46.61;99224.50;5012318;28;20049;-84
2022/08/14 08:27:18;;;;;;;10.90;9.75;;;;;;;24.98;46.22;99234.38;5030138;28;20050;-84
2022/08/14 08:29:47;;;;;;;11.02;9.70;;;;;;;24.99;46.17;99228.72;5054467;28;20509;-83
2022/08/14 08:32:17;;;;;;;12.13;10.75;;;;;;;25.03;45.62;99226.31;5042277;28;20398;-84
2022/08/14 08:34:45;;;;;;;11.18;9.98;;;;;;;25.03;45.47;99223.59;5039900;28;20044;-87
2022/08/14 08:37:13;;;;;;;11.32;9.73;;;;;;;25.04;44.88;99217.13;5005544;28;22653;-87
2022/08/14 08:39:48;;;;;;;14.02;10.10;;;;;;;25.04;45.19;99212.50;5012045;28;20130;-81
2022/08/14 08:42:30;;;;;;;10.85;9.50;;;;;;;25.13;45.17;99215.63;5025006;28;20117;-80
2022/08/14 08:45:07;;;;;;;10.27;9.27;;;;;;;25.19;45.12;99216.56;5034616;28;20045;-81
2022/08/14 08:47:40;;;;;;;13.57;9.57;;;;;;;25.22;45.02;99210.66;5024127;28;20541;-80
2022/08/14 08:50:32;;;;;;;10.98;9.10;;;;;;;25.20;44.57;99210.06;5027471;28;20363;-88
2022/08/14 08:53:00;;;;;;;9.85;8.85;;;;;;;25.33;44.67;99212.44;5015135;28;20060;-87
2022/08/14 08:55:39;;;;;;;13.18;9.15;;;;;;;25.33;44.54;99205.13;5026695;28;20489;-87
2022/08/14 08:58:11;;;;;;;10.45;9.02;;;;;;;25.42;44.28;99210.97;5018893;28;20716;-88
2022/08/14 09:00:49;;;;;;;11.80;9.25;;;;;;;25.46;43.46;99208.56;5038637;28;20752;-87
2022/08/14 09:03:23;;;;;;;9.65;8.65;;;;;;;25.49;44.03;99195.31;5044037;28;20050;-80
2022/08/14 09:05:51;;;;;;;12.63;8.23;;;;;;;25.54;43.75;99194.56;5019593;28;20524;-80
2022/08/14 09:08:27;;;;;;;9.00;8.10;;;;;;;25.55;42.39;99185.34;5006997;28;20045;-80
2022/08/14 09:11:04;;;;;;;11.63;7.85;;;;;;;25.56;42.30;99186.97;5043736;28;20046;-80
2022/08/14 09:13:50;;;;;;;9.25;6.82;;;;;;;25.59;42.40;99188.38;4973837;28;20045;-80
2022/08/14 09:16:24;;;;;;;9.35;8.40;;;;;;;25.60;42.19;99190.84;5024058;28;20667;-80
2022/08/14 09:18:51;;;;;;;11.55;7.93;;;;;;;25.67;42.39;99185.22;5028879;28;20046;-80
2022/08/14 09:21:19;;;;;;;9.88;8.10;;;;;;;25.71;42.08;99181.75;5001740;28;20417;-80
2022/08/14 09:23:51;;;;;;;9.05;7.75;;;;;;;25.74;41.80;99173.09;5029764;28;20073;-80
2022/08/14 09:26:40;;;;;;;8.60;7.68;;;;;;;25.78;41.89;99170.72;5021433;28;20061;-80
2022/08/14 09:29:08;;;;;;;8.77;7.13;;;;;;;25.82;41.08;99163.66;5011376;28;20052;-89
2022/08/14 09:31:39;;;;;;;9.05;6.60;;;;;;;25.85;41.02;99167.81;5023539;28;20560;-88
2022/08/14 09:34:21;;;;;;;7.87;6.63;;;;;;;25.84;40.11;99156.09;5001269;28;20550;-89
2022/08/14 09:37:35;;;;;;;6.93;6.25;;;;;;;25.80;39.15;99148.69;4987068;28;20440;-87
2022/08/14 09:40:16;;;;;;;8.00;6.30;;;;;;;25.91;38.04;99142.34;4944016;28;20402;-90
2022/08/14 09:43:13;;;;;;;8.68;5.93;;;;;;;25.83;38.00;99135.41;4995058;28;20049;-82
2022/08/14 09:45:49;;;;;;;8.27;6.13;;;;;;;25.97;38.87;99128.53;4910187;28;20057;-82
2022/08/14 09:48:23;;;;;;;6.45;5.72;;;;;;;25.99;37.66;99126.38;5012803;28;20056;-82
2022/08/14 09:50:56;;;;;;;7.28;6.28;;;;;;;26.05;38.03;99127.25;4974426;28;20536;-81
2022/08/14 09:53:42;;;;;;;7.20;6.28;;;;;;;26.07;37.64;99122.38;4966541;28;20047;-80
2022/08/14 09:56:29;;;;;;;7.72;6.93;;;;;;;26.15;37.92;99123.84;4998607;28;20076;-81
2022/08/14 09:59:13;;;;;;;11.20;7.20;;;;;;;26.13;37.15;99123.25;4978615;28;20059;-80
2022/08/14 10:01:43;;;;;;;8.18;7.07;;;;;;;26.20;37.39;99119.31;5029189;28;20096;-87
2022/08/14 10:04:23;;;;;;;7.95;7.15;;;;;;;26.20;36.45;99108.41;5002626;28;20048;-89
2022/08/14 10:07:04;;;;;;;6.82;6.07;;;;;;;26.25;36.92;99117.69;5016615;28;20045;-81
2022/08/14 10:09:31;;;;;;;7.38;6.65;;;;;;;26.27;36.97;99119.06;5016777;28;20067;-80
2022/08/14 10:12:01;;;;;;;11.88;6.63;;;;;;;26.30;36.85;99117.75;5017968;28;20504;-81
2022/08/14 10:14:32;;;;;;;9.85;7.65;;;;;;;26.32;36.77;99112.88;5027663;28;20450;-81
2022/08/14 10:17:03;;;;;;;7.70;6.20;;;;;;;26.34;37.22;99121.59;5028047;28;20080;-87
2022/08/14 10:19:31;;;;;;;9.75;7.00;;;;;;;26.37;36.95;99129.25;5054011;28;20041;-90
2022/08/14 10:22:09;;;;;;;10.70;6.70;;;;;;;26.40;37.09;99131.47;5009358;28;20056;-88
2022/08/14 10:24:56;;;;;;;7.68;6.82;;;;;;;26.42;37.30;99143.72;5012627;28;20093;-89
2022/08/14 10:27:27;;;;;;;11.48;8.13;;;;;;;26.45;37.03;99123.34;5051651;28;20046;-90
2022/08/14 10:29:59;;;;;;;102.53;15.32;;;;;;;26.45;36.82;99123.34;5006413;28;20049;-89
2022/08/14 10:32:27;;;;;;;91.60;14.73;;;;;;;26.47;37.07;99121.19;5020785;28;20047;-90
2022/08/14 10:35:10;;;;;;;16.90;8.43;;;;;;;26.51;36.24;99107.88;5029236;28;20045;-89
2022/08/14 10:37:47;;;;;;;12.52;7.93;;;;;;;26.51;36.80;99091.53;5015610;28;20497;-90
2022/08/14 10:40:34;;;;;;;8.30;7.40;;;;;;;26.47;36.70;99079.53;5060470;28;20046;-89
2022/08/14 10:43:20;;;;;;;8.07;7.28;;;;;;;26.59;36.82;99072.06;4997758;28;20042;-90
2022/08/14 10:46:00;;;;;;;10.53;8.27;;;;;;;26.59;36.18;99064.72;5028172;28;20046;-89
2022/08/14 10:48:58;;;;;;;13.50;9.02;;;;;;;26.63;36.36;99059.53;4969806;28;20045;-90
2022/08/14 10:51:26;;;;;;;8.55;7.78;;;;;;;26.70;35.97;99053.91;5051562;28;20135;-90
2022/08/14 10:53:57;;;;;;;11.45;7.30;;;;;;;26.69;35.95;99055.81;5034546;28;20501;-80
2022/08/14 10:56:32;;;;;;;10.77;7.47;;;;;;;26.73;34.07;99065.06;5009597;28;20043;-80
2022/08/14 10:59:06;;;;;;;8.32;7.10;;;;;;;26.78;35.21;99059.66;4988962;28;20064;-87
2022/08/14 11:01:37;;;;;;;8.75;6.90;;;;;;;26.78;35.05;99051.50;5042021;28;20393;-81
2022/08/14 11:04:24;;;;;;;9.27;7.93;;;;;;;26.73;35.26;99043.28;5032467;28;20171;-82
2022/08/14 11:06:55;;;;;;;8.43;6.97;;;;;;;26.82;35.01;99025.38;5003093;28;20121;-82
2022/08/14 11:09:22;;;;;;;7.85;7.10;;;;;;;26.82;34.44;99013.69;5042102;28;20137;-82
2022/08/14 11:11:55;;;;;;;8.50;7.70;;;;;;;26.87;33.83;99004.69;5014447;28;20581;-81
2022/08/14 11:14:50;;;;;;;8.75;7.13;;;;;;;26.85;34.87;99013.16;5025313;28;20521;-82
2022/08/14 11:17:27;;;;;;;8.35;7.50;;;;;;;26.93;34.72;99006.38;5046849;28;20030;-81
2022/08/14 11:19:58;;;;;;;;;;;;;;;26.80;35.48;99008.47;5014668;28;20059;-82
2022/08/14 11:22:28;;;;;;;10.93;7.65;;;;;;;26.95;34.78;98994.13;5050043;28;20631;-82
2022/08/14 11:25:18;;;;;;;8.07;7.28;;;;;;;27.00;34.99;98999.63;5019219;28;20404;-85
2022/08/14 11:27:51;;;;;;;13.00;8.00;;;;;;;27.00;34.88;99002.34;4997050;28;20158;-86
2022/08/14 11:30:22;;;;;;;9.07;8.02;;;;;;;27.02;34.19;99002.06;5025517;28;20046;-88
2022/08/14 11:33:10;;;;;;;10.30;7.43;;;;;;;27.08;34.49;98997.47;4998767;28;20038;-89
2022/08/14 11:36:00;;;;;;;9.38;8.15;;;;;;;27.09;34.62;99001.84;5026088;28;20525;-86
2022/08/14 11:38:40;;;;;;;8.63;7.72;;;;;;;27.07;34.60;98999.38;5022658;28;20041;-86
2022/08/14 11:41:15;;;;;;;9.70;8.20;;;;;;;27.11;34.18;98994.22;5027600;28;20041;-87
2022/08/14 11:44:09;;;;;;;;;;;;;;;27.02;34.79;98988.44;5026694;28;20065;-86
2022/08/14 11:46:48;;;;;;;9.32;7.53;;;;;;;27.11;34.36;98989.59;5032863;28;20496;-85
2022/08/14 11:49:25;;;;;;;8.57;7.72;;;;;;;27.12;34.17;98987.69;5012031;28;20100;-86
2022/08/14 11:52:00;;;;;;;9.65;8.30;;;;;;;27.19;34.61;98985.56;5016122;28;20520;-87
2022/08/14 11:54:29;;;;;;;11.88;9.48;;;;;;;27.24;34.68;98989.13;5017919;28;20041;-87
2022/08/14 11:57:00;;;;;;;9.30;8.40;;;;;;;27.26;33.86;98986.16;5031862;28;20070;-87
2022/08/14 11:59:33;;;;;;;8.10;7.30;;;;;;;27.25;34.17;98976.34;4997097;28;20046;-87
2022/08/14 12:02:10;;;;;;;10.48;9.48;;;;;;;27.30;34.39;98983.69;5027685;28;20038;-87
2022/08/14 12:09:35;;;;;;;8.65;7.60;;;;;;;27.39;34.41;98980.19;5004669;28;20046;-87
2022/08/14 12:12:18;;;;;;;9.82;7.70;;;;;;;27.41;34.42;98974.50;5028598;28;20045;-89
2022/08/14 12:15:05;;;;;;;8.38;7.40;;;;;;;27.48;33.80;98977.78;5008937;28;20046;-89
2022/08/14 12:17:47;;;;;;;9.65;7.82;;;;;;;27.46;34.22;98969.88;5027888;28;20042;-89
2022/08/14 12:20:17;;;;;;;8.70;7.80;;;;;;;27.54;34.02;98979.44;5044232;28;20046;-87
2022/08/14 12:23:07;;;;;;;10.93;7.45;;;;;;;27.55;33.85;98972.06;5011417;28;20125;-89
2022/08/14 12:25:34;;;;;;;10.88;8.18;;;;;;;27.59;34.02;98967.72;5025081;28;20045;-81
2022/08/14 12:28:10;;;;;;;12.50;7.45;;;;;;;27.60;33.81;98962.00;5025997;28;20140;-82